Terminal Aerodrome Forecast
Issued by NWS

Home | Current Version | Previous Version | Text Only | Print | Product List | Glossary Off
Versions: 1 2 3 4 5 6 7 8 9 10 11 12 13 14 15 16 17 18 19 20 21

323
FTUS43 KMPX 230520
TAFAXN
TAF
KAXN 230520Z 2306/2406 10004KT P6SM BKN250
     FM231400 13013G18KT P6SM SCT050 BKN090
      TEMPO 2316/2320 3SM TSRA BKN035CB
     FM232000 16011KT 6SM -SHRA BKN050
      TEMPO 2322/2402 3SM TSRA BKN035CB
     FM240200 23008KT P6SM SCT040 BKN090=

USA.gov is the U.S. government's official web portal to all federal, state and local government web resources and services.